createdAt,value
2022-10-15T00:01:16.824Z,95749.19
2022-10-15T00:03:44.903Z,95760.50
2022-10-15T00:06:14.820Z,95750.31
2022-10-15T00:08:42.553Z,95746.97
2022-10-15T00:11:21.464Z,95745.44
2022-10-15T00:13:49.075Z,95739.97
2022-10-15T00:16:21.220Z,95690.75
2022-10-15T00:18:48.924Z,95653.69
2022-10-15T00:21:18.072Z,95505.34
2022-10-15T00:23:45.943Z,95684.97
2022-10-15T00:26:21.462Z,95688.53
2022-10-15T00:28:52.962Z,95707.72
2022-10-15T00:31:24.378Z,95699.19
2022-10-15T00:33:52.435Z,95726.59
2022-10-15T00:36:22.535Z,95719.75
2022-10-15T00:38:49.718Z,95660.56
2022-10-15T00:41:20.613Z,95706.44
2022-10-15T00:44:02.035Z,95712.13
2022-10-15T00:46:31.353Z,95664.91
2022-10-15T00:49:11.920Z,95683.66
2022-10-15T00:51:42.883Z,95642.59
2022-10-15T00:54:11.258Z,95696.47
2022-10-15T00:56:40.260Z,95647.47
2022-10-15T00:59:08.648Z,95695.59
2022-10-15T01:01:35.374Z,95606.38
2022-10-15T01:04:04.288Z,95677.28
2022-10-15T01:06:30.924Z,95593.88
2022-10-15T01:08:57.952Z,95624.28
2022-10-15T01:11:47.352Z,95626.50
2022-10-15T01:14:47.327Z,95637.25
2022-10-15T01:17:32.379Z,95642.75
2022-10-15T01:20:14.168Z,95643.50
2022-10-15T01:22:43.635Z,95636.63
2022-10-15T01:25:42.019Z,95592.88
2022-10-15T01:28:30.684Z,95641.56
2022-10-15T01:31:10.367Z,95624.16
2022-10-15T01:33:45.382Z,95627.63
2022-10-15T01:36:31.163Z,95603.03
2022-10-15T01:39:11.342Z,95645.19
2022-10-15T01:41:41.333Z,95636.91
2022-10-15T01:44:14.476Z,95623.56
2022-10-15T01:47:07.556Z,95593.19
2022-10-15T01:49:42.640Z,95631.25
2022-10-15T01:52:14.991Z,95627.41
2022-10-15T01:54:42.710Z,95593.06
2022-10-15T01:57:11.075Z,95556.22
2022-10-15T01:59:40.131Z,95581.53
2022-10-15T02:02:06.777Z,95624.16
2022-10-15T02:04:33.532Z,95543.84
2022-10-15T02:07:14.746Z,95578.19
2022-10-15T02:10:07.758Z,95623.75
2022-10-15T02:12:41.855Z,95612.09
2022-10-15T02:15:24.513Z,95602.03
2022-10-15T02:18:04.399Z,95610.59
2022-10-15T02:21:08.117Z,95579.47
2022-10-15T02:23:47.672Z,95590.16
2022-10-15T02:26:15.861Z,95577.25
2022-10-15T02:28:48.375Z,95585.13
2022-10-15T02:31:18.729Z,95580.72
2022-10-15T02:33:46.881Z,95589.41
2022-10-15T02:36:14.918Z,95574.38
2022-10-15T02:38:44.992Z,95551.13
2022-10-15T02:41:12.857Z,95536.63
2022-10-15T02:43:41.328Z,95587.47
2022-10-15T02:46:10.373Z,95538.88
2022-10-15T02:48:37.501Z,95556.59
2022-10-15T02:51:05.025Z,95569.69
2022-10-15T02:53:32.363Z,95554.34
2022-10-15T02:55:59.002Z,95550.88
2022-10-15T02:58:26.075Z,95486.06
2022-10-15T03:00:52.907Z,95569.47
2022-10-15T03:03:19.599Z,95541.53
2022-10-15T03:05:46.630Z,95539.84
2022-10-15T03:08:14.166Z,95581.06
2022-10-15T03:10:40.854Z,95575.34
2022-10-15T03:13:08.043Z,95571.03
2022-10-15T03:15:42.294Z,95539.06
2022-10-15T03:18:09.217Z,95520.66
2022-10-15T03:20:35.976Z,95497.09
2022-10-15T03:23:02.676Z,95563.22
2022-10-15T03:25:30.811Z,95529.47
2022-10-15T03:28:01.652Z,95331.53
2022-10-15T03:30:36.042Z,95547.38
2022-10-15T03:33:03.001Z,95561.97
2022-10-15T03:35:30.106Z,95556.25
2022-10-15T03:37:57.317Z,95517.75
2022-10-15T03:40:23.984Z,95555.41
2022-10-15T03:42:56.474Z,95542.31
2022-10-15T03:45:24.780Z,95514.75
2022-10-15T03:48:04.553Z,95540.25
2022-10-15T03:50:33.810Z,95553.59
2022-10-15T03:53:06.187Z,95465.91
2022-10-15T03:55:33.501Z,95538.56
2022-10-15T03:58:00.739Z,95542.53
2022-10-15T04:00:27.487Z,95503.34
2022-10-15T04:02:57.881Z,95516.72
2022-10-15T04:05:26.875Z,95512.00
2022-10-15T04:07:59.138Z,95478.88
2022-10-15T04:10:27.584Z,95546.84
2022-10-15T04:12:54.167Z,95458.06
2022-10-15T04:15:20.804Z,95536.88
2022-10-15T04:17:58.251Z,95506.63
2022-10-15T04:20:26.964Z,95527.88
2022-10-15T04:22:54.620Z,95536.88
2022-10-15T04:25:21.267Z,95491.59
2022-10-15T04:27:47.906Z,95527.81
2022-10-15T04:30:17.583Z,95535.00
2022-10-15T04:32:54.760Z,95550.75
2022-10-15T04:35:21.646Z,95534.59
2022-10-15T04:38:11.313Z,95539.53
2022-10-15T04:41:10.530Z,95513.72
2022-10-15T04:43:58.568Z,95497.69
2022-10-15T04:46:25.872Z,95526.50
2022-10-15T04:48:53.082Z,95547.41
2022-10-15T04:51:21.032Z,95537.69
2022-10-15T04:54:06.441Z,95539.13
2022-10-15T04:56:34.733Z,95515.41
2022-10-15T04:59:01.420Z,95492.69
2022-10-15T05:01:31.456Z,95466.78
2022-10-15T05:04:07.368Z,95553.75
2022-10-15T05:06:34.108Z,95439.72
2022-10-15T05:09:14.780Z,95483.31
2022-10-15T05:11:46.655Z,95550.94
2022-10-15T05:14:13.556Z,95524.22
2022-10-15T05:16:40.193Z,95386.19
2022-10-15T05:19:08.519Z,95522.78
2022-10-15T05:21:37.990Z,95530.41
2022-10-15T05:24:11.791Z,95495.16
2022-10-15T05:27:13.892Z,95536.88
2022-10-15T05:29:40.603Z,95507.09
2022-10-15T05:32:07.735Z,95518.56
2022-10-15T05:34:34.370Z,95528.53
2022-10-15T05:37:06.477Z,95541.72
2022-10-15T05:39:33.195Z,95576.19
2022-10-15T05:42:00.210Z,95526.34
2022-10-15T05:44:36.220Z,95570.41
2022-10-15T05:47:02.846Z,95564.63
2022-10-15T05:49:29.556Z,95544.28
2022-10-15T05:52:04.709Z,95480.75
2022-10-15T05:55:03.798Z,95437.91
2022-10-15T05:57:30.435Z,95568.03
2022-10-15T05:59:57.033Z,95571.44
2022-10-15T06:02:24.138Z,95518.63
2022-10-15T06:04:53.367Z,95581.06
2022-10-15T06:07:20.703Z,95587.13
2022-10-15T06:09:47.415Z,95529.25
2022-10-15T06:12:15.009Z,95486.91
2022-10-15T06:14:41.662Z,95561.88
2022-10-15T06:17:08.283Z,95485.84
2022-10-15T06:19:34.852Z,95562.47
2022-10-15T06:22:01.419Z,95565.81
2022-10-15T06:24:28.269Z,95561.22
2022-10-15T06:26:54.883Z,95559.59
2022-10-15T06:29:21.442Z,95570.88
2022-10-15T06:31:49.872Z,95579.31
2022-10-15T06:34:16.491Z,95604.09
2022-10-15T06:36:43.176Z,95587.97
2022-10-15T06:39:09.846Z,95485.59
2022-10-15T06:42:06.055Z,95543.59
2022-10-15T06:44:39.764Z,95584.13
2022-10-15T06:47:06.396Z,95602.84
2022-10-15T06:49:33.128Z,95617.34
2022-10-15T06:52:03.418Z,95558.44
2022-10-15T06:54:30.365Z,95567.75
2022-10-15T06:56:56.973Z,95618.13
2022-10-15T06:59:23.644Z,95644.50
2022-10-15T07:01:50.307Z,95577.44
2022-10-15T07:04:16.875Z,95591.66
2022-10-15T07:06:43.842Z,95648.91
2022-10-15T07:09:10.450Z,95649.63
2022-10-15T07:11:37.065Z,95595.63
2022-10-15T07:14:03.648Z,95618.75
2022-10-15T07:16:30.309Z,95612.41
2022-10-15T07:18:56.895Z,95627.47
2022-10-15T07:21:23.658Z,95657.69
2022-10-15T07:23:50.419Z,95648.97
2022-10-15T07:26:17.048Z,95643.25
2022-10-15T07:28:43.651Z,95621.78
2022-10-15T07:31:10.303Z,95632.25
2022-10-15T07:33:37.229Z,95666.44
2022-10-15T07:36:09.844Z,95667.94
2022-10-15T07:38:36.868Z,95665.22
2022-10-15T07:41:04.909Z,95666.41
2022-10-15T07:43:32.553Z,95684.66
2022-10-15T07:45:59.175Z,95655.63
2022-10-15T07:48:25.908Z,95663.28
2022-10-15T07:50:56.834Z,95669.41
2022-10-15T07:53:23.828Z,95646.84
2022-10-15T07:55:59.868Z,95646.44
2022-10-15T07:58:30.653Z,95665.09
2022-10-15T08:01:05.540Z,95667.34
2022-10-15T08:03:32.242Z,95649.16
2022-10-15T08:06:04.457Z,95685.66
2022-10-15T08:08:31.636Z,95511.53
2022-10-15T08:10:58.355Z,95677.28
2022-10-15T08:13:25.026Z,95634.06
2022-10-15T08:15:57.614Z,95638.72
2022-10-15T08:18:27.541Z,95688.78
2022-10-15T08:20:54.215Z,95535.75
2022-10-15T08:23:20.839Z,95716.69
2022-10-15T08:25:47.457Z,95684.25
2022-10-15T08:28:14.167Z,95688.41
2022-10-15T08:30:40.924Z,95654.72
2022-10-15T08:33:12.446Z,95726.72
2022-10-15T08:35:43.657Z,95730.19
2022-10-15T08:38:16.229Z,95694.97
2022-10-15T08:40:50.428Z,95748.13
2022-10-15T08:43:35.349Z,95744.31
2022-10-15T08:46:11.546Z,95585.72
2022-10-15T08:48:44.503Z,95729.00
2022-10-15T08:51:20.303Z,95758.19
2022-10-15T08:53:50.983Z,95734.19
2022-10-15T08:56:22.111Z,95716.81
2022-10-15T08:59:31.636Z,95765.06
2022-10-15T09:02:13.516Z,95760.50
2022-10-15T09:05:01.105Z,95719.59
2022-10-15T09:07:42.866Z,95695.88
2022-10-15T09:10:17.893Z,95734.91
2022-10-15T09:13:16.422Z,95756.75
2022-10-15T09:15:57.332Z,95723.44
2022-10-15T09:18:27.524Z,95751.72
2022-10-15T09:20:54.848Z,95719.16
2022-10-15T09:23:26.111Z,95766.81
2022-10-15T09:26:13.183Z,95749.09
2022-10-15T09:28:53.037Z,95766.38
2022-10-15T09:31:27.632Z,95709.38
2022-10-15T09:34:03.166Z,95768.66
2022-10-15T09:36:45.839Z,95757.63
2022-10-15T09:39:27.186Z,95787.41
2022-10-15T09:42:12.714Z,95782.91
2022-10-15T09:44:46.068Z,95784.78
2022-10-15T09:47:29.859Z,95790.09
2022-10-15T09:50:05.031Z,95748.50
2022-10-15T09:52:40.752Z,95793.72
2022-10-15T09:55:25.721Z,95797.91
2022-10-15T09:57:56.911Z,95759.59
2022-10-15T10:00:23.544Z,95779.22
2022-10-15T10:03:15.349Z,95782.28
2022-10-15T10:05:43.351Z,95766.13
2022-10-15T10:08:19.609Z,95809.84
2022-10-15T10:10:55.465Z,95797.25
2022-10-15T10:13:30.223Z,95831.47
2022-10-15T10:16:06.397Z,95792.66
2022-10-15T10:18:33.296Z,95818.41
2022-10-15T10:21:06.931Z,95835.56
2022-10-15T10:23:37.025Z,95831.00
2022-10-15T10:26:06.906Z,95805.31
2022-10-15T10:28:42.092Z,95833.88
2022-10-15T10:31:11.650Z,95761.91
2022-10-15T10:33:50.464Z,95823.28
2022-10-15T10:36:33.907Z,95838.28
2022-10-15T10:39:28.366Z,95818.09
2022-10-15T10:42:05.508Z,95839.59
2022-10-15T10:44:35.164Z,95853.81
2022-10-15T10:47:10.482Z,95855.44
2022-10-15T10:49:42.549Z,95848.97
2022-10-15T10:52:19.492Z,95858.16
2022-10-15T10:54:47.754Z,95853.16
2022-10-15T10:57:20.465Z,95838.19
2022-10-15T10:59:52.340Z,95868.50
2022-10-15T11:02:19.466Z,95850.53
2022-10-15T11:04:47.096Z,95861.97
2022-10-15T11:07:35.154Z,95819.03
2022-10-15T11:10:17.001Z,95882.66
2022-10-15T11:13:07.030Z,95887.97
2022-10-15T11:15:33.679Z,95887.97
2022-10-15T11:18:28.521Z,95880.06
2022-10-15T11:21:28.892Z,95799.22
2022-10-15T11:24:20.603Z,95889.16
2022-10-15T11:27:06.561Z,95886.84
2022-10-15T11:30:01.848Z,95891.13
2022-10-15T11:32:54.430Z,95898.72
2022-10-15T11:35:51.438Z,95863.22
2022-10-15T11:38:20.591Z,95896.47
2022-10-15T11:40:50.479Z,95892.91
2022-10-15T11:43:54.222Z,95875.81
2022-10-15T11:46:33.495Z,95890.88
2022-10-15T11:49:15.475Z,95914.19
2022-10-15T11:52:12.772Z,95913.72
2022-10-15T11:54:45.420Z,95905.34
2022-10-15T11:57:17.294Z,95869.69
2022-10-15T11:59:52.017Z,95875.06
2022-10-15T12:02:21.971Z,95908.41
2022-10-15T12:04:52.315Z,95872.34
2022-10-15T12:07:34.570Z,95911.41
2022-10-15T12:10:12.503Z,95868.66
2022-10-15T12:12:48.285Z,95910.28
2022-10-15T12:15:30.672Z,95884.69
2022-10-15T12:18:06.575Z,95910.56
2022-10-15T12:20:33.268Z,95867.63
2022-10-15T12:23:01.567Z,95812.94
2022-10-15T12:25:34.764Z,95906.09
2022-10-15T12:28:03.592Z,95858.31
2022-10-15T12:30:34.509Z,95762.19
2022-10-15T12:33:03.418Z,95883.91
2022-10-15T12:35:40.195Z,95863.13
2022-10-15T12:38:23.330Z,95869.81
2022-10-15T12:41:03.945Z,95900.47
2022-10-15T12:43:35.663Z,95842.25
2022-10-15T12:46:07.599Z,95775.13
2022-10-15T12:48:45.709Z,95747.94
2022-10-15T12:51:21.601Z,95915.19
2022-10-15T12:53:53.184Z,95916.63
2022-10-15T12:56:25.136Z,95899.28
2022-10-15T12:58:54.647Z,95892.13
2022-10-15T13:01:21.355Z,95912.38
2022-10-15T13:03:51.191Z,95915.88
2022-10-15T13:06:20.839Z,95912.06
2022-10-15T13:09:09.481Z,95907.50
2022-10-15T13:11:57.296Z,95885.16
2022-10-15T13:14:27.096Z,95901.50
2022-10-15T13:16:56.561Z,95899.47
2022-10-15T13:19:30.563Z,95888.47
2022-10-15T13:22:00.810Z,95884.25
2022-10-15T13:24:40.612Z,95869.69
2022-10-15T13:27:16.010Z,95893.00
2022-10-15T13:29:56.441Z,95881.34
2022-10-15T13:32:28.983Z,95788.38
2022-10-15T13:34:57.631Z,95891.97
2022-10-15T13:37:37.940Z,95883.22
2022-10-15T13:40:08.043Z,95909.31
2022-10-15T13:42:35.610Z,95856.44
2022-10-15T13:45:14.690Z,95910.97
2022-10-15T13:47:42.656Z,95896.84
2022-10-15T13:50:20.212Z,95925.56
2022-10-15T13:52:52.771Z,95924.47
2022-10-15T13:55:24.720Z,95887.63
2022-10-15T13:57:57.214Z,95858.28
2022-10-15T14:00:28.247Z,95877.91
2022-10-15T14:03:16.146Z,95925.38
2022-10-15T14:05:44.812Z,95925.84
2022-10-15T14:08:33.024Z,95891.44
2022-10-15T14:11:00.485Z,95927.06
2022-10-15T14:13:28.002Z,95867.31
2022-10-15T14:16:24.083Z,95926.59
2022-10-15T14:18:55.032Z,95860.41
2022-10-15T14:21:32.348Z,95878.53
2022-10-15T14:24:07.045Z,95915.25
2022-10-15T14:26:35.046Z,95922.69
2022-10-15T14:29:03.054Z,95875.88
2022-10-15T14:31:32.827Z,95929.69
2022-10-15T14:33:59.640Z,95883.22
2022-10-15T14:36:29.628Z,95915.56
2022-10-15T14:39:34.054Z,95938.56
2022-10-15T14:42:05.974Z,95886.25
2022-10-15T14:44:44.195Z,95936.38
2022-10-15T14:47:20.633Z,95941.25
2022-10-15T14:49:51.323Z,95889.44
2022-10-15T14:52:21.138Z,95897.19
2022-10-15T14:54:51.240Z,95924.00
2022-10-15T14:57:24.373Z,95799.03
2022-10-15T14:59:56.200Z,95937.69
2022-10-15T15:02:26.493Z,95817.47
2022-10-15T15:05:11.798Z,95932.00
2022-10-15T15:07:39.136Z,95900.22
2022-10-15T15:10:07.562Z,95932.81
2022-10-15T15:12:35.192Z,95830.44
2022-10-15T15:15:02.194Z,95765.34
2022-10-15T15:17:30.442Z,95893.19
2022-10-15T15:19:57.993Z,95935.28
2022-10-15T15:22:31.367Z,95899.38
2022-10-15T15:25:00.086Z,95937.69
2022-10-15T15:27:29.632Z,95936.25
2022-10-15T15:29:57.503Z,95932.44
2022-10-15T15:32:25.358Z,95921.31
2022-10-15T15:34:53.930Z,95907.47
2022-10-15T15:37:22.946Z,95952.28
2022-10-15T15:39:50.364Z,95951.06
2022-10-15T15:42:22.570Z,95933.81
2022-10-15T15:44:49.879Z,95911.53
2022-10-15T15:47:17.012Z,95903.50
2022-10-15T15:49:43.738Z,95843.31
2022-10-15T15:52:13.995Z,95945.31
2022-10-15T15:54:41.529Z,95939.53
2022-10-15T15:57:08.260Z,95898.97
2022-10-15T15:59:35.117Z,95909.94
2022-10-15T16:02:02.006Z,95937.41
2022-10-15T16:04:28.905Z,95901.28
2022-10-15T16:06:56.439Z,95955.53
2022-10-15T16:09:23.616Z,95928.69
2022-10-15T16:11:51.041Z,95933.50
2022-10-15T16:14:17.826Z,95920.69
2022-10-15T16:16:44.513Z,95936.81
2022-10-15T16:19:13.875Z,95943.59
2022-10-15T16:21:41.774Z,95908.75
2022-10-15T16:24:08.580Z,95936.28
2022-10-15T16:26:35.218Z,95888.81
2022-10-15T16:29:01.998Z,95899.09
2022-10-15T16:31:30.333Z,95910.97
2022-10-15T16:33:57.710Z,95908.66
2022-10-15T16:36:25.149Z,95957.72
2022-10-15T16:38:51.938Z,95853.81
2022-10-15T16:41:21.431Z,95955.44
2022-10-15T16:43:48.779Z,95875.28
2022-10-15T16:46:16.934Z,95957.28
2022-10-15T16:48:43.899Z,95932.69
2022-10-15T16:51:14.052Z,95937.19
2022-10-15T16:53:45.347Z,95888.81
2022-10-15T16:56:16.409Z,95962.84
2022-10-15T16:58:43.706Z,95940.19
2022-10-15T17:01:15.889Z,95918.31
2022-10-15T17:03:43.461Z,95957.72
2022-10-15T17:06:13.431Z,95979.16
2022-10-15T17:08:52.105Z,95979.47
2022-10-15T17:11:24.084Z,95899.97
2022-10-15T17:13:54.471Z,95946.78
2022-10-15T17:16:25.550Z,95984.31
2022-10-15T17:18:53.213Z,95984.28
2022-10-15T17:21:26.100Z,95980.09
2022-10-15T17:23:54.593Z,95973.22
2022-10-15T17:26:24.037Z,95976.69
2022-10-15T17:28:51.857Z,95961.34
2022-10-15T17:31:22.768Z,95995.75
2022-10-15T17:33:57.787Z,96001.81
2022-10-15T17:36:26.599Z,96007.13
2022-10-15T17:38:56.887Z,95890.19
2022-10-15T17:41:25.541Z,96009.59
2022-10-15T17:43:53.274Z,96010.72
2022-10-15T17:46:23.924Z,96008.72
2022-10-15T17:48:50.579Z,95988.41
2022-10-15T17:51:20.249Z,95981.09
2022-10-15T17:53:50.721Z,95994.00
2022-10-15T17:56:26.480Z,95979.09
2022-10-15T17:58:56.908Z,95960.41
2022-10-15T18:01:56.749Z,96020.13
2022-10-15T18:04:20.748Z,95998.56
2022-10-15T18:06:47.425Z,96022.06
2022-10-15T18:09:23.977Z,95987.44
2022-10-15T18:11:51.032Z,96045.03
2022-10-15T18:14:21.622Z,95941.09
2022-10-15T18:16:48.358Z,95962.91
2022-10-15T18:19:15.113Z,96035.47
2022-10-15T18:21:48.572Z,95998.66
2022-10-15T18:24:20.048Z,96019.19
2022-10-15T18:26:46.858Z,96001.16
2022-10-15T18:29:13.526Z,95986.53
2022-10-15T18:31:40.973Z,96060.94
2022-10-15T18:34:07.655Z,95961.94
2022-10-15T18:36:34.273Z,95985.03
2022-10-15T18:39:01.017Z,96025.91
2022-10-15T18:41:33.597Z,96032.47
2022-10-15T18:44:03.108Z,96062.72
2022-10-15T18:46:33.938Z,96063.00
2022-10-15T18:49:01.721Z,96040.28
2022-10-15T18:51:31.199Z,96051.31
2022-10-15T18:53:59.627Z,95993.91
2022-10-15T18:56:26.855Z,96043.34
2022-10-15T18:58:56.080Z,96032.94
2022-10-15T19:01:24.679Z,96071.59
2022-10-15T19:03:52.652Z,95937.00
2022-10-15T19:06:24.042Z,96083.19
2022-10-15T19:08:51.662Z,96069.03
2022-10-15T19:11:19.398Z,96081.38
2022-10-15T19:13:49.462Z,96043.56
2022-10-15T19:16:43.089Z,96011.38
2022-10-15T19:19:18.267Z,96046.75
2022-10-15T19:21:46.529Z,96087.66
2022-10-15T19:24:14.470Z,96088.06
2022-10-15T19:26:41.391Z,96064.16
2022-10-15T19:29:08.100Z,96091.44
2022-10-15T19:31:38.257Z,95999.13
2022-10-15T19:34:31.943Z,96093.72
2022-10-15T19:41:06.507Z,96099.31
2022-10-15T19:43:18.510Z,95833.91
2022-10-15T19:45:46.853Z,96004.50
2022-10-15T19:48:18.603Z,96102.38
2022-10-15T19:50:46.507Z,96105.31
2022-10-15T19:53:16.447Z,95998.25
2022-10-15T19:55:44.691Z,96117.56
2022-10-15T19:58:11.425Z,96107.84
2022-10-15T20:00:38.263Z,96088.28
2022-10-15T20:03:05.093Z,96108.25
2022-10-15T20:05:32.304Z,96119.72
2022-10-15T20:08:00.656Z,96117.16
2022-10-15T20:10:27.408Z,96099.81
2022-10-15T20:12:54.136Z,96017.53
2022-10-15T20:15:21.031Z,96072.13
2022-10-15T20:17:48.080Z,96095.44
2022-10-15T20:20:15.408Z,96096.06
2022-10-15T20:22:42.443Z,96098.25
2022-10-15T20:25:09.391Z,96069.66
2022-10-15T20:27:36.064Z,96128.09
2022-10-15T20:30:03.939Z,96066.66
2022-10-15T20:32:34.794Z,96110.13
2022-10-15T20:35:03.318Z,96116.16
2022-10-15T20:37:30.159Z,96121.88
2022-10-15T20:42:28.818Z,96097.13
2022-10-15T20:44:55.700Z,96110.91
2022-10-15T20:47:24.549Z,96157.25
2022-10-15T20:49:53.464Z,96118.66
2022-10-15T20:52:22.209Z,96156.88
2022-10-15T20:54:49.472Z,96131.34
2022-10-15T20:57:16.666Z,96150.16
2022-10-15T20:59:43.434Z,96148.56
2022-10-15T21:02:10.131Z,96118.91
2022-10-15T21:04:36.966Z,96129.69
2022-10-15T21:07:04.014Z,96036.09
2022-10-15T21:09:30.706Z,96145.34
2022-10-15T21:11:57.525Z,96167.22
2022-10-15T21:14:24.276Z,96179.25
2022-10-15T21:16:50.939Z,96163.50
2022-10-15T21:19:17.685Z,96166.75
2022-10-15T21:21:44.333Z,96173.47
2022-10-15T21:24:11.063Z,96118.81
2022-10-15T21:26:37.690Z,96152.19
2022-10-15T21:29:04.467Z,96167.66
2022-10-15T21:31:31.260Z,96173.88
2022-10-15T21:33:57.992Z,96154.50
2022-10-15T21:36:27.212Z,96189.28
2022-10-15T21:39:01.584Z,96182.34
2022-10-15T21:41:31.394Z,96166.81
2022-10-15T21:43:58.982Z,96168.97
2022-10-15T21:46:26.413Z,96183.38
2022-10-15T21:48:53.832Z,96065.47
2022-10-15T21:51:27.212Z,96182.97
2022-10-15T21:53:55.581Z,96116.75
2022-10-15T21:56:22.970Z,96152.94
2022-10-15T21:58:50.029Z,96171.28
2022-10-15T22:01:19.565Z,96127.53
2022-10-15T22:03:47.871Z,96183.97
2022-10-15T22:06:15.496Z,96193.72
2022-10-15T22:08:45.314Z,96197.44
2022-10-15T22:11:17.071Z,96159.31
2022-10-15T22:13:45.930Z,96149.66
2022-10-15T22:16:14.069Z,96132.13
2022-10-15T22:18:41.245Z,96171.13
2022-10-15T22:21:15.565Z,96148.19
2022-10-15T22:23:48.476Z,96209.66
2022-10-15T22:26:17.451Z,96208.03
2022-10-15T22:28:45.068Z,96172.94
2022-10-15T22:31:14.833Z,96202.28
2022-10-15T22:33:42.601Z,96207.75
2022-10-15T22:36:21.899Z,96206.28
2022-10-15T22:38:52.556Z,96148.06
2022-10-15T22:41:22.389Z,96204.59
2022-10-15T22:43:52.281Z,96168.25
2022-10-15T22:46:18.875Z,96144.28
2022-10-15T22:48:45.577Z,96196.91
2022-10-15T22:51:13.789Z,96210.78
2022-10-15T22:53:40.951Z,96184.69
2022-10-15T22:56:12.506Z,96203.63
2022-10-15T22:58:39.634Z,96184.59
2022-10-15T23:01:13.896Z,96204.59
2022-10-15T23:03:42.603Z,96207.59
2022-10-15T23:06:09.987Z,96161.41
2022-10-15T23:08:37.060Z,96200.00
2022-10-15T23:11:12.722Z,96180.75
2022-10-15T23:13:40.602Z,96215.78
2022-10-15T23:16:14.994Z,96223.81
2022-10-15T23:18:43.751Z,96167.56
2022-10-15T23:21:19.725Z,96162.97
2022-10-15T23:23:46.995Z,96170.91
2022-10-15T23:26:16.241Z,96225.53
2022-10-15T23:28:44.801Z,96217.81
2022-10-15T23:31:20.156Z,96224.41
2022-10-15T23:33:47.782Z,96180.06
2022-10-15T23:36:14.656Z,96192.75
2022-10-15T23:38:41.391Z,96171.19
2022-10-15T23:41:10.152Z,96208.91
2022-10-15T23:43:37.566Z,96227.00
2022-10-15T23:46:04.361Z,96215.31
2022-10-15T23:48:31.092Z,96216.19
2022-10-15T23:51:00.942Z,96179.66
2022-10-15T23:53:33.196Z,96189.31
2022-10-15T23:56:02.918Z,96226.75
2022-10-15T23:58:32.154Z,96220.72
